sensor_id;sensor_type;location;lat;lon;timestamp;pressure;altitude;pressure_sealevel;temperature
74533;BMP180;63012;51.096;-115.366;2022-08-21T00:02:17;86825.80;;;27.00
74533;BMP180;63012;51.096;-115.366;2022-08-21T00:04:45;86824.40;;;27.00
74533;BMP180;63012;51.096;-115.366;2022-08-21T00:07:13;86828.40;;;27.00
74533;BMP180;63012;51.096;-115.366;2022-08-21T00:09:40;86825.00;;;27.04
74533;BMP180;63012;51.096;-115.366;2022-08-21T00:12:07;86824.60;;;27.10
74533;BMP180;63012;51.096;-115.366;2022-08-21T00:14:35;86821.80;;;27.10
74533;BMP180;63012;51.096;-115.366;2022-08-21T00:17:04;86822.60;;;27.10
74533;BMP180;63012;51.096;-115.366;2022-08-21T00:19:32;86828.20;;;27.10
74533;BMP180;63012;51.096;-115.366;2022-08-21T00:21:59;86828.00;;;27.10
74533;BMP180;63012;51.096;-115.366;2022-08-21T00:24:27;86829.00;;;27.10
74533;BMP180;63012;51.096;-115.366;2022-08-21T00:26:57;86824.20;;;27.14
74533;BMP180;63012;51.096;-115.366;2022-08-21T00:29:25;86824.40;;;27.16
74533;BMP180;63012;51.096;-115.366;2022-08-21T00:31:52;86821.80;;;27.20
74533;BMP180;63012;51.096;-115.366;2022-08-21T00:34:19;86822.40;;;27.20
74533;BMP180;63012;51.096;-115.366;2022-08-21T00:36:46;86831.60;;;27.20
74533;BMP180;63012;51.096;-115.366;2022-08-21T00:39:14;86832.00;;;27.20
74533;BMP180;63012;51.096;-115.366;2022-08-21T00:41:42;86833.80;;;27.20
74533;BMP180;63012;51.096;-115.366;2022-08-21T00:44:13;86834.60;;;27.20
74533;BMP180;63012;51.096;-115.366;2022-08-21T00:46:42;86836.80;;;27.20
74533;BMP180;63012;51.096;-115.366;2022-08-21T00:49:12;86832.60;;;27.22
74533;BMP180;63012;51.096;-115.366;2022-08-21T00:51:58;86832.20;;;27.28
74533;BMP180;63012;51.096;-115.366;2022-08-21T00:54:30;86830.00;;;27.30
74533;BMP180;63012;51.096;-115.366;2022-08-21T00:57:03;86827.60;;;27.30
74533;BMP180;63012;51.096;-115.366;2022-08-21T00:59:37;86827.00;;;27.30
74533;BMP180;63012;51.096;-115.366;2022-08-21T01:02:08;86823.40;;;27.30
74533;BMP180;63012;51.096;-115.366;2022-08-21T01:04:36;86822.00;;;27.30
74533;BMP180;63012;51.096;-115.366;2022-08-21T01:07:07;86822.60;;;27.30
74533;BMP180;63012;51.096;-115.366;2022-08-21T01:09:35;86821.20;;;27.30
74533;BMP180;63012;51.096;-115.366;2022-08-21T01:12:03;86821.80;;;27.32
74533;BMP180;63012;51.096;-115.366;2022-08-21T01:14:45;86819.00;;;27.38
74533;BMP180;63012;51.096;-115.366;2022-08-21T01:17:16;86818.80;;;27.40
74533;BMP180;63012;51.096;-115.366;2022-08-21T01:19:44;86815.80;;;27.40
74533;BMP180;63012;51.096;-115.366;2022-08-21T01:22:11;86819.20;;;27.40
74533;BMP180;63012;51.096;-115.366;2022-08-21T01:24:38;86816.20;;;27.40
74533;BMP180;63012;51.096;-115.366;2022-08-21T01:27:06;86821.60;;;27.40
74533;BMP180;63012;51.096;-115.366;2022-08-21T01:29:42;86821.60;;;27.40
74533;BMP180;63012;51.096;-115.366;2022-08-21T01:32:15;86825.40;;;27.40
74533;BMP180;63012;51.096;-115.366;2022-08-21T01:34:47;86827.00;;;27.40
74533;BMP180;63012;51.096;-115.366;2022-08-21T01:37:25;86825.40;;;27.40
74533;BMP180;63012;51.096;-115.366;2022-08-21T01:39:56;86824.40;;;27.40
74533;BMP180;63012;51.096;-115.366;2022-08-21T01:42:27;86825.60;;;27.42
74533;BMP180;63012;51.096;-115.366;2022-08-21T01:44:54;86826.60;;;27.40
74533;BMP180;63012;51.096;-115.366;2022-08-21T01:47:24;86834.00;;;27.42
74533;BMP180;63012;51.096;-115.366;2022-08-21T01:49:54;86830.00;;;27.50
74533;BMP180;63012;51.096;-115.366;2022-08-21T01:52:21;86832.00;;;27.48
74533;BMP180;63012;51.096;-115.366;2022-08-21T01:54:52;86833.60;;;27.50
74533;BMP180;63012;51.096;-115.366;2022-08-21T01:57:19;86834.20;;;27.50
74533;BMP180;63012;51.096;-115.366;2022-08-21T01:59:46;86839.00;;;27.50
74533;BMP180;63012;51.096;-115.366;2022-08-21T02:02:14;86841.00;;;27.50
74533;BMP180;63012;51.096;-115.366;2022-08-21T02:04:41;86842.20;;;27.50
74533;BMP180;63012;51.096;-115.366;2022-08-21T02:07:10;86849.60;;;27.50
74533;BMP180;63012;51.096;-115.366;2022-08-21T02:09:41;86849.40;;;27.50
74533;BMP180;63012;51.096;-115.366;2022-08-21T02:12:11;86852.60;;;27.50
74533;BMP180;63012;51.096;-115.366;2022-08-21T02:14:39;86857.00;;;27.50
74533;BMP180;63012;51.096;-115.366;2022-08-21T02:17:08;86860.40;;;27.50
74533;BMP180;63012;51.096;-115.366;2022-08-21T02:19:41;86861.20;;;27.50
74533;BMP180;63012;51.096;-115.366;2022-08-21T02:22:11;86868.20;;;27.50
74533;BMP180;63012;51.096;-115.366;2022-08-21T02:24:39;86875.20;;;27.50
74533;BMP180;63012;51.096;-115.366;2022-08-21T02:27:06;86875.00;;;27.50
74533;BMP180;63012;51.096;-115.366;2022-08-21T02:29:37;86878.00;;;27.50
74533;BMP180;63012;51.096;-115.366;2022-08-21T02:32:07;86880.60;;;27.50
74533;BMP180;63012;51.096;-115.366;2022-08-21T02:34:34;86886.20;;;27.50
74533;BMP180;63012;51.096;-115.366;2022-08-21T02:37:02;86882.40;;;27.50
74533;BMP180;63012;51.096;-115.366;2022-08-21T02:39:29;86886.80;;;27.50
74533;BMP180;63012;51.096;-115.366;2022-08-21T02:41:56;86887.40;;;27.50
74533;BMP180;63012;51.096;-115.366;2022-08-21T02:44:23;86891.60;;;27.52
74533;BMP180;63012;51.096;-115.366;2022-08-21T02:46:50;86893.40;;;27.50
74533;BMP180;63012;51.096;-115.366;2022-08-21T02:49:21;86896.40;;;27.50
74533;BMP180;63012;51.096;-115.366;2022-08-21T02:51:47;86899.80;;;27.50
74533;BMP180;63012;51.096;-115.366;2022-08-21T02:54:14;86903.00;;;27.50
74533;BMP180;63012;51.096;-115.366;2022-08-21T02:56:41;86910.60;;;27.50
74533;BMP180;63012;51.096;-115.366;2022-08-21T02:59:09;86916.40;;;27.54
74533;BMP180;63012;51.096;-115.366;2022-08-21T03:01:36;86924.00;;;27.50
74533;BMP180;63012;51.096;-115.366;2022-08-21T03:04:04;86922.40;;;27.50
74533;BMP180;63012;51.096;-115.366;2022-08-21T03:06:31;86925.20;;;27.50
74533;BMP180;63012;51.096;-115.366;2022-08-21T03:08:58;86930.80;;;27.50
74533;BMP180;63012;51.096;-115.366;2022-08-21T03:11:25;86934.40;;;27.50
74533;BMP180;63012;51.096;-115.366;2022-08-21T03:13:56;86942.60;;;27.50
74533;BMP180;63012;51.096;-115.366;2022-08-21T03:16:23;86939.20;;;27.50
74533;BMP180;63012;51.096;-115.366;2022-08-21T03:18:50;86943.20;;;27.50
74533;BMP180;63012;51.096;-115.366;2022-08-21T03:21:18;86949.40;;;27.50
74533;BMP180;63012;51.096;-115.366;2022-08-21T03:23:46;86952.40;;;27.50
74533;BMP180;63012;51.096;-115.366;2022-08-21T03:26:12;86952.80;;;27.50
74533;BMP180;63012;51.096;-115.366;2022-08-21T03:28:39;86955.20;;;27.50
74533;BMP180;63012;51.096;-115.366;2022-08-21T03:31:07;86955.40;;;27.50
74533;BMP180;63012;51.096;-115.366;2022-08-21T03:33:35;86958.60;;;27.50
74533;BMP180;63012;51.096;-115.366;2022-08-21T03:36:06;86956.00;;;27.50
74533;BMP180;63012;51.096;-115.366;2022-08-21T03:38:35;86957.60;;;27.50
74533;BMP180;63012;51.096;-115.366;2022-08-21T03:41:05;86956.20;;;27.50
74533;BMP180;63012;51.096;-115.366;2022-08-21T03:43:33;86957.00;;;27.50
74533;BMP180;63012;51.096;-115.366;2022-08-21T03:46:04;86956.80;;;27.50
74533;BMP180;63012;51.096;-115.366;2022-08-21T03:48:33;86956.00;;;27.50
74533;BMP180;63012;51.096;-115.366;2022-08-21T03:51:00;86963.00;;;27.50
74533;BMP180;63012;51.096;-115.366;2022-08-21T03:53:27;86966.20;;;27.50
74533;BMP180;63012;51.096;-115.366;2022-08-21T03:55:55;86967.80;;;27.50
74533;BMP180;63012;51.096;-115.366;2022-08-21T03:58:26;86971.80;;;27.50
74533;BMP180;63012;51.096;-115.366;2022-08-21T04:00:57;86971.40;;;27.50
74533;BMP180;63012;51.096;-115.366;2022-08-21T04:03:26;86976.80;;;27.50
74533;BMP180;63012;51.096;-115.366;2022-08-21T04:05:53;86982.80;;;27.50
74533;BMP180;63012;51.096;-115.366;2022-08-21T04:08:23;86982.20;;;27.50
74533;BMP180;63012;51.096;-115.366;2022-08-21T04:10:56;86985.40;;;27.50
74533;BMP180;63012;51.096;-115.366;2022-08-21T04:13:25;86989.00;;;27.50
74533;BMP180;63012;51.096;-115.366;2022-08-21T04:15:57;86990.80;;;27.50
74533;BMP180;63012;51.096;-115.366;2022-08-21T04:18:27;86998.80;;;27.50
74533;BMP180;63012;51.096;-115.366;2022-08-21T04:20:59;87005.40;;;27.50
74533;BMP180;63012;51.096;-115.366;2022-08-21T04:23:27;86999.40;;;27.50
74533;BMP180;63012;51.096;-115.366;2022-08-21T04:25:56;87012.80;;;27.50
74533;BMP180;63012;51.096;-115.366;2022-08-21T04:28:27;87017.60;;;27.50
74533;BMP180;63012;51.096;-115.366;2022-08-21T04:31:04;87020.00;;;27.50
74533;BMP180;63012;51.096;-115.366;2022-08-21T04:33:35;87018.80;;;27.50
74533;BMP180;63012;51.096;-115.366;2022-08-21T04:36:06;87020.40;;;27.50
74533;BMP180;63012;51.096;-115.366;2022-08-21T04:38:34;87014.60;;;27.50
74533;BMP180;63012;51.096;-115.366;2022-08-21T04:41:01;87019.60;;;27.50
74533;BMP180;63012;51.096;-115.366;2022-08-21T04:43:28;87023.20;;;27.50
74533;BMP180;63012;51.096;-115.366;2022-08-21T04:45:55;87018.80;;;27.50
74533;BMP180;63012;51.096;-115.366;2022-08-21T04:48:24;87025.60;;;27.50
74533;BMP180;63012;51.096;-115.366;2022-08-21T04:51:16;87030.20;;;27.50
74533;BMP180;63012;51.096;-115.366;2022-08-21T04:53:51;87025.80;;;27.50
74533;BMP180;63012;51.096;-115.366;2022-08-21T04:59:00;87030.80;;;27.48
74533;BMP180;63012;51.096;-115.366;2022-08-21T05:01:34;87034.40;;;27.48
74533;BMP180;63012;51.096;-115.366;2022-08-21T05:04:06;87037.20;;;27.48
74533;BMP180;63012;51.096;-115.366;2022-08-21T05:06:38;87038.80;;;27.50
74533;BMP180;63012;51.096;-115.366;2022-08-21T05:09:08;87046.20;;;27.48
74533;BMP180;63012;51.096;-115.366;2022-08-21T05:11:36;87042.80;;;27.42
74533;BMP180;63012;51.096;-115.366;2022-08-21T05:14:13;87043.60;;;27.40
74533;BMP180;63012;51.096;-115.366;2022-08-21T05:16:41;87053.40;;;27.40
74533;BMP180;63012;51.096;-115.366;2022-08-21T05:19:11;87052.20;;;27.40
74533;BMP180;63012;51.096;-115.366;2022-08-21T05:21:45;87049.20;;;27.42
74533;BMP180;63012;51.096;-115.366;2022-08-21T05:24:15;87049.20;;;27.40
74533;BMP180;63012;51.096;-115.366;2022-08-21T05:26:42;87048.60;;;27.40
74533;BMP180;63012;51.096;-115.366;2022-08-21T05:29:10;87050.40;;;27.40
74533;BMP180;63012;51.096;-115.366;2022-08-21T05:31:38;87057.80;;;27.40
74533;BMP180;63012;51.096;-115.366;2022-08-21T05:34:05;87061.20;;;27.40
74533;BMP180;63012;51.096;-115.366;2022-08-21T05:36:35;87065.60;;;27.40
74533;BMP180;63012;51.096;-115.366;2022-08-21T05:39:03;87065.80;;;27.40
74533;BMP180;63012;51.096;-115.366;2022-08-21T05:41:30;87064.60;;;27.40
74533;BMP180;63012;51.096;-115.366;2022-08-21T05:43:57;87065.00;;;27.40
74533;BMP180;63012;51.096;-115.366;2022-08-21T05:46:25;87065.80;;;27.40
74533;BMP180;63012;51.096;-115.366;2022-08-21T05:48:52;87071.40;;;27.40
74533;BMP180;63012;51.096;-115.366;2022-08-21T05:51:20;87069.00;;;27.40
74533;BMP180;63012;51.096;-115.366;2022-08-21T05:53:48;87066.00;;;27.40
74533;BMP180;63012;51.096;-115.366;2022-08-21T05:56:18;87068.00;;;27.40
74533;BMP180;63012;51.096;-115.366;2022-08-21T05:58:48;87069.40;;;27.40
74533;BMP180;63012;51.096;-115.366;2022-08-21T06:01:15;87075.00;;;27.40
74533;BMP180;63012;51.096;-115.366;2022-08-21T06:03:43;87071.40;;;27.40
74533;BMP180;63012;51.096;-115.366;2022-08-21T06:06:10;87077.60;;;27.40
74533;BMP180;63012;51.096;-115.366;2022-08-21T06:08:44;87072.00;;;27.40
74533;BMP180;63012;51.096;-115.366;2022-08-21T06:11:14;87074.00;;;27.40
74533;BMP180;63012;51.096;-115.366;2022-08-21T06:13:45;87077.40;;;27.38
74533;BMP180;63012;51.096;-115.366;2022-08-21T06:16:16;87082.00;;;27.32
74533;BMP180;63012;51.096;-115.366;2022-08-21T06:18:44;87083.60;;;27.36
74533;BMP180;63012;51.096;-115.366;2022-08-21T06:21:12;87086.80;;;27.30
74533;BMP180;63012;51.096;-115.366;2022-08-21T06:23:40;87090.20;;;27.30
74533;BMP180;63012;51.096;-115.366;2022-08-21T06:26:10;87095.20;;;27.30
74533;BMP180;63012;51.096;-115.366;2022-08-21T06:28:38;87101.60;;;27.30
74533;BMP180;63012;51.096;-115.366;2022-08-21T06:31:19;87102.20;;;27.30
74533;BMP180;63012;51.096;-115.366;2022-08-21T06:33:50;87102.60;;;27.30
74533;BMP180;63012;51.096;-115.366;2022-08-21T06:36:19;87109.00;;;27.30
74533;BMP180;63012;51.096;-115.366;2022-08-21T06:38:47;87109.20;;;27.30
74533;BMP180;63012;51.096;-115.366;2022-08-21T06:41:16;87110.00;;;27.30
74533;BMP180;63012;51.096;-115.366;2022-08-21T06:43:43;87106.80;;;27.28
74533;BMP180;63012;51.096;-115.366;2022-08-21T06:46:10;87106.40;;;27.30
74533;BMP180;63012;51.096;-115.366;2022-08-21T06:48:43;87107.60;;;27.26
74533;BMP180;63012;51.096;-115.366;2022-08-21T06:51:10;87109.20;;;27.22
74533;BMP180;63012;51.096;-115.366;2022-08-21T06:53:37;87111.00;;;27.24
74533;BMP180;63012;51.096;-115.366;2022-08-21T06:56:04;87114.40;;;27.20
74533;BMP180;63012;51.096;-115.366;2022-08-21T06:58:34;87117.00;;;27.20
74533;BMP180;63012;51.096;-115.366;2022-08-21T07:01:01;87121.00;;;27.20
74533;BMP180;63012;51.096;-115.366;2022-08-21T07:03:36;87125.40;;;27.20
74533;BMP180;63012;51.096;-115.366;2022-08-21T07:06:06;87127.60;;;27.20
74533;BMP180;63012;51.096;-115.366;2022-08-21T07:08:34;87126.60;;;27.20
74533;BMP180;63012;51.096;-115.366;2022-08-21T07:11:19;87123.00;;;27.20
74533;BMP180;63012;51.096;-115.366;2022-08-21T07:13:52;87129.80;;;27.20
74533;BMP180;63012;51.096;-115.366;2022-08-21T07:16:21;87126.80;;;27.20
74533;BMP180;63012;51.096;-115.366;2022-08-21T07:18:50;87131.40;;;27.20
74533;BMP180;63012;51.096;-115.366;2022-08-21T07:21:22;87131.20;;;27.20
74533;BMP180;63012;51.096;-115.366;2022-08-21T07:23:52;87132.60;;;27.20
74533;BMP180;63012;51.096;-115.366;2022-08-21T07:26:24;87132.60;;;27.16
74533;BMP180;63012;51.096;-115.366;2022-08-21T07:28:53;87133.20;;;27.10
74533;BMP180;63012;51.096;-115.366;2022-08-21T07:31:23;87135.80;;;27.10
74533;BMP180;63012;51.096;-115.366;2022-08-21T07:33:53;87135.40;;;27.10
74533;BMP180;63012;51.096;-115.366;2022-08-21T07:36:23;87134.60;;;27.10
74533;BMP180;63012;51.096;-115.366;2022-08-21T07:38:51;87135.20;;;27.10
74533;BMP180;63012;51.096;-115.366;2022-08-21T07:41:24;87134.60;;;27.10
74533;BMP180;63012;51.096;-115.366;2022-08-21T07:43:55;87132.80;;;27.10
74533;BMP180;63012;51.096;-115.366;2022-08-21T07:46:24;87137.20;;;27.10
74533;BMP180;63012;51.096;-115.366;2022-08-21T07:48:52;87136.00;;;27.10
74533;BMP180;63012;51.096;-115.366;2022-08-21T07:51:27;87139.40;;;27.10
74533;BMP180;63012;51.096;-115.366;2022-08-21T07:53:59;87144.60;;;27.10
74533;BMP180;63012;51.096;-115.366;2022-08-21T07:56:27;87146.00;;;27.10
74533;BMP180;63012;51.096;-115.366;2022-08-21T07:58:54;87145.00;;;27.10
74533;BMP180;63012;51.096;-115.366;2022-08-21T08:01:24;87150.00;;;27.10
74533;BMP180;63012;51.096;-115.366;2022-08-21T08:03:55;87152.20;;;27.10
74533;BMP180;63012;51.096;-115.366;2022-08-21T08:06:23;87154.60;;;27.10
74533;BMP180;63012;51.096;-115.366;2022-08-21T08:08:50;87152.60;;;27.10
74533;BMP180;63012;51.096;-115.366;2022-08-21T08:11:17;87150.00;;;27.08
74533;BMP180;63012;51.096;-115.366;2022-08-21T08:13:50;87146.00;;;27.08
74533;BMP180;63012;51.096;-115.366;2022-08-21T08:16:19;87149.20;;;27.06
74533;BMP180;63012;51.096;-115.366;2022-08-21T08:18:46;87148.60;;;27.04
74533;BMP180;63012;51.096;-115.366;2022-08-21T08:21:14;87152.80;;;27.00
74533;BMP180;63012;51.096;-115.366;2022-08-21T08:23:44;87155.00;;;27.02
74533;BMP180;63012;51.096;-115.366;2022-08-21T08:26:14;87155.60;;;27.00
74533;BMP180;63012;51.096;-115.366;2022-08-21T08:28:44;87153.60;;;27.00
74533;BMP180;63012;51.096;-115.366;2022-08-21T08:31:14;87152.60;;;27.00
74533;BMP180;63012;51.096;-115.366;2022-08-21T08:33:43;87155.60;;;27.00
74533;BMP180;63012;51.096;-115.366;2022-08-21T08:36:15;87157.00;;;27.00
74533;BMP180;63012;51.096;-115.366;2022-08-21T08:38:43;87156.40;;;27.00
74533;BMP180;63012;51.096;-115.366;2022-08-21T08:41:20;87157.80;;;27.00
74533;BMP180;63012;51.096;-115.366;2022-08-21T08:43:59;87159.80;;;27.00
74533;BMP180;63012;51.096;-115.366;2022-08-21T08:46:47;87157.20;;;27.00
74533;BMP180;63012;51.096;-115.366;2022-08-21T08:49:42;87160.40;;;27.00
74533;BMP180;63012;51.096;-115.366;2022-08-21T08:52:26;87165.20;;;27.00
74533;BMP180;63012;51.096;-115.366;2022-08-21T08:55:50;87172.00;;;27.00
74533;BMP180;63012;51.096;-115.366;2022-08-21T08:58:31;87170.00;;;26.98
74533;BMP180;63012;51.096;-115.366;2022-08-21T09:01:00;87173.00;;;26.94
74533;BMP180;63012;51.096;-115.366;2022-08-21T09:03:30;87170.20;;;26.92
74533;BMP180;63012;51.096;-115.366;2022-08-21T09:06:33;87173.80;;;26.90
74533;BMP180;63012;51.096;-115.366;2022-08-21T09:12:15;87183.00;;;26.90
74533;BMP180;63012;51.096;-115.366;2022-08-21T09:15:23;87188.20;;;26.90
74533;BMP180;63012;51.096;-115.366;2022-08-21T09:22:02;87198.80;;;26.90
74533;BMP180;63012;51.096;-115.366;2022-08-21T09:27:34;87196.60;;;26.90
74533;BMP180;63012;51.096;-115.366;2022-08-21T09:30:06;87204.00;;;26.90
74533;BMP180;63012;51.096;-115.366;2022-08-21T09:32:39;87207.00;;;26.90
74533;BMP180;63012;51.096;-115.366;2022-08-21T09:35:14;87206.80;;;26.88
74533;BMP180;63012;51.096;-115.366;2022-08-21T09:37:58;87206.80;;;26.88
74533;BMP180;63012;51.096;-115.366;2022-08-21T09:40:46;87206.20;;;26.86
74533;BMP180;63012;51.096;-115.366;2022-08-21T09:43:22;87209.00;;;26.82
74533;BMP180;63012;51.096;-115.366;2022-08-21T09:46:09;87208.80;;;26.80
74533;BMP180;63012;51.096;-115.366;2022-08-21T09:48:47;87214.00;;;26.80
74533;BMP180;63012;51.096;-115.366;2022-08-21T09:51:20;87209.00;;;26.80
74533;BMP180;63012;51.096;-115.366;2022-08-21T09:57:04;87215.80;;;26.80
74533;BMP180;63012;51.096;-115.366;2022-08-21T09:59:46;87221.20;;;26.80
74533;BMP180;63012;51.096;-115.366;2022-08-21T10:02:27;87219.80;;;26.80
74533;BMP180;63012;51.096;-115.366;2022-08-21T10:07:43;87228.80;;;26.80
74533;BMP180;63012;51.096;-115.366;2022-08-21T10:10:22;87236.80;;;26.80
74533;BMP180;63012;51.096;-115.366;2022-08-21T10:13:22;87235.00;;;26.80
74533;BMP180;63012;51.096;-115.366;2022-08-21T10:16:15;87241.40;;;26.80
74533;BMP180;63012;51.096;-115.366;2022-08-21T10:22:29;87245.60;;;26.70
74533;BMP180;63012;51.096;-115.366;2022-08-21T10:28:44;87247.40;;;26.70
74533;BMP180;63012;51.096;-115.366;2022-08-21T10:31:28;87242.60;;;26.70
74533;BMP180;63012;51.096;-115.366;2022-08-21T10:34:39;87245.00;;;26.70
74533;BMP180;63012;51.096;-115.366;2022-08-21T10:40:27;87248.40;;;26.70
74533;BMP180;63012;51.096;-115.366;2022-08-21T10:49:51;87252.00;;;26.60
74533;BMP180;63012;51.096;-115.366;2022-08-21T10:52:48;87252.20;;;26.60
74533;BMP180;63012;51.096;-115.366;2022-08-21T10:55:26;87257.80;;;26.60
74533;BMP180;63012;51.096;-115.366;2022-08-21T10:58:23;87260.00;;;26.60
74533;BMP180;63012;51.096;-115.366;2022-08-21T11:01:19;87260.60;;;26.60
74533;BMP180;63012;51.096;-115.366;2022-08-21T11:04:00;87262.00;;;26.60
74533;BMP180;63012;51.096;-115.366;2022-08-21T11:06:33;87268.20;;;26.56
74533;BMP180;63012;51.096;-115.366;2022-08-21T11:09:15;87271.60;;;26.52
74533;BMP180;63012;51.096;-115.366;2022-08-21T11:12:06;87274.40;;;26.50
74533;BMP180;63012;51.096;-115.366;2022-08-21T11:14:54;87279.80;;;26.50
74533;BMP180;63012;51.096;-115.366;2022-08-21T11:17:42;87281.80;;;26.50
74533;BMP180;63012;51.096;-115.366;2022-08-21T11:23:18;87289.40;;;26.50
74533;BMP180;63012;51.096;-115.366;2022-08-21T11:26:12;87295.60;;;26.50
74533;BMP180;63012;51.096;-115.366;2022-08-21T11:29:02;87299.00;;;26.50
74533;BMP180;63012;51.096;-115.366;2022-08-21T11:31:51;87305.40;;;26.50
74533;BMP180;63012;51.096;-115.366;2022-08-21T11:34:41;87301.60;;;26.50
74533;BMP180;63012;51.096;-115.366;2022-08-21T11:46:28;87303.20;;;26.40
74533;BMP180;63012;51.096;-115.366;2022-08-21T11:52:29;87297.80;;;26.40
74533;BMP180;63012;51.096;-115.366;2022-08-21T11:55:07;87299.40;;;26.40
74533;BMP180;63012;51.096;-115.366;2022-08-21T11:58:05;87293.80;;;26.40
74533;BMP180;63012;51.096;-115.366;2022-08-21T12:00:56;87300.20;;;26.40
74533;BMP180;63012;51.096;-115.366;2022-08-21T12:03:38;87306.00;;;26.38
74533;BMP180;63012;51.096;-115.366;2022-08-21T12:06:14;87306.60;;;26.30
74533;BMP180;63012;51.096;-115.366;2022-08-21T12:08:46;87307.20;;;26.30
74533;BMP180;63012;51.096;-115.366;2022-08-21T12:11:26;87313.00;;;26.30
74533;BMP180;63012;51.096;-115.366;2022-08-21T12:14:18;87313.80;;;26.30
74533;BMP180;63012;51.096;-115.366;2022-08-21T12:16:48;87324.00;;;26.30
74533;BMP180;63012;51.096;-115.366;2022-08-21T12:19:31;87321.80;;;26.30
74533;BMP180;63012;51.096;-115.366;2022-08-21T12:27:44;87329.40;;;26.30
74533;BMP180;63012;51.096;-115.366;2022-08-21T12:33:01;87343.00;;;26.30
74533;BMP180;63012;51.096;-115.366;2022-08-21T12:35:41;87341.20;;;26.30
74533;BMP180;63012;51.096;-115.366;2022-08-21T12:38:26;87343.40;;;26.26
74533;BMP180;63012;51.096;-115.366;2022-08-21T12:41:10;87348.40;;;26.22
74533;BMP180;63012;51.096;-115.366;2022-08-21T12:43:48;87344.20;;;26.20
74533;BMP180;63012;51.096;-115.366;2022-08-21T12:46:30;87348.00;;;26.20
74533;BMP180;63012;51.096;-115.366;2022-08-21T12:49:21;87352.20;;;26.20
74533;BMP180;63012;51.096;-115.366;2022-08-21T12:52:06;87349.60;;;26.20
74533;BMP180;63012;51.096;-115.366;2022-08-21T12:54:43;87345.80;;;26.20
74533;BMP180;63012;51.096;-115.366;2022-08-21T12:57:24;87348.00;;;26.20
74533;BMP180;63012;51.096;-115.366;2022-08-21T13:00:02;87343.40;;;26.20
74533;BMP180;63012;51.096;-115.366;2022-08-21T13:02:46;87347.60;;;26.20
74533;BMP180;63012;51.096;-115.366;2022-08-21T13:05:36;87344.00;;;26.12
74533;BMP180;63012;51.096;-115.366;2022-08-21T13:08:11;87341.40;;;26.10
74533;BMP180;63012;51.096;-115.366;2022-08-21T13:10:41;87341.80;;;26.10
74533;BMP180;63012;51.096;-115.366;2022-08-21T13:13:20;87347.40;;;26.10
74533;BMP180;63012;51.096;-115.366;2022-08-21T13:15:48;87347.60;;;26.10
74533;BMP180;63012;51.096;-115.366;2022-08-21T13:18:31;87350.00;;;26.10
74533;BMP180;63012;51.096;-115.366;2022-08-21T13:21:15;87355.00;;;26.10
74533;BMP180;63012;51.096;-115.366;2022-08-21T13:23:43;87360.00;;;26.10
74533;BMP180;63012;51.096;-115.366;2022-08-21T13:26:22;87362.40;;;26.10
74533;BMP180;63012;51.096;-115.366;2022-08-21T13:29:09;87365.00;;;26.10
74533;BMP180;63012;51.096;-115.366;2022-08-21T13:31:40;87368.40;;;26.10
74533;BMP180;63012;51.096;-115.366;2022-08-21T13:34:11;87372.00;;;26.06
74533;BMP180;63012;51.096;-115.366;2022-08-21T13:36:43;87375.00;;;26.02
74533;BMP180;63012;51.096;-115.366;2022-08-21T13:39:18;87378.80;;;26.02
74533;BMP180;63012;51.096;-115.366;2022-08-21T13:41:49;87381.00;;;26.00
74533;BMP180;63012;51.096;-115.366;2022-08-21T13:44:46;87380.60;;;26.00
74533;BMP180;63012;51.096;-115.366;2022-08-21T13:47:19;87378.20;;;26.00
74533;BMP180;63012;51.096;-115.366;2022-08-21T13:49:49;87382.20;;;26.00
74533;BMP180;63012;51.096;-115.366;2022-08-21T13:52:26;87379.40;;;26.00
74533;BMP180;63012;51.096;-115.366;2022-08-21T13:54:59;87386.00;;;26.00
74533;BMP180;63012;51.096;-115.366;2022-08-21T13:57:35;87385.60;;;26.00
74533;BMP180;63012;51.096;-115.366;2022-08-21T14:00:27;87393.60;;;26.00
74533;BMP180;63012;51.096;-115.366;2022-08-21T14:03:06;87393.00;;;26.00
74533;BMP180;63012;51.096;-115.366;2022-08-21T14:05:45;87394.40;;;25.98
74533;BMP180;63012;51.096;-115.366;2022-08-21T14:08:36;87389.20;;;25.92
74533;BMP180;63012;51.096;-115.366;2022-08-21T14:11:09;87389.20;;;25.90
74533;BMP180;63012;51.096;-115.366;2022-08-21T14:13:49;87389.80;;;25.90
74533;BMP180;63012;51.096;-115.366;2022-08-21T14:19:22;87382.80;;;25.90
74533;BMP180;63012;51.096;-115.366;2022-08-21T14:21:51;87383.40;;;25.90
74533;BMP180;63012;51.096;-115.366;2022-08-21T14:24:29;87384.00;;;25.90
74533;BMP180;63012;51.096;-115.366;2022-08-21T14:27:06;87385.40;;;25.90
74533;BMP180;63012;51.096;-115.366;2022-08-21T14:29:40;87385.20;;;25.90
74533;BMP180;63012;51.096;-115.366;2022-08-21T14:32:22;87380.80;;;25.90
74533;BMP180;63012;51.096;-115.366;2022-08-21T14:34:58;87374.60;;;25.90
74533;BMP180;63012;51.096;-115.366;2022-08-21T14:37:25;87371.80;;;25.90
74533;BMP180;63012;51.096;-115.366;2022-08-21T14:39:52;87371.20;;;25.90
74533;BMP180;63012;51.096;-115.366;2022-08-21T14:42:20;87370.20;;;25.90
74533;BMP180;63012;51.096;-115.366;2022-08-21T14:44:47;87372.60;;;25.90
74533;BMP180;63012;51.096;-115.366;2022-08-21T14:47:17;87377.40;;;25.90
74533;BMP180;63012;51.096;-115.366;2022-08-21T14:49:43;87380.80;;;25.88
74533;BMP180;63012;51.096;-115.366;2022-08-21T14:52:10;87383.60;;;25.88
74533;BMP180;63012;51.096;-115.366;2022-08-21T14:54:40;87383.80;;;25.84
74533;BMP180;63012;51.096;-115.366;2022-08-21T14:57:12;87377.20;;;25.82
74533;BMP180;63012;51.096;-115.366;2022-08-21T14:59:40;87371.40;;;25.80
74533;BMP180;63012;51.096;-115.366;2022-08-21T15:02:09;87376.60;;;25.82
74533;BMP180;63012;51.096;-115.366;2022-08-21T15:04:39;87373.80;;;25.80
74533;BMP180;63012;51.096;-115.366;2022-08-21T15:07:06;87372.80;;;25.80
74533;BMP180;63012;51.096;-115.366;2022-08-21T15:09:35;87374.00;;;25.80